Litchfield, MN

6:54 PM CDT on October 21, 2017 (GMT -0500)
Litchfield Municipal

Weather History for KLJF - November, 2010

Change the Weather History Date:

Friday, November 5, 2010

  Actual Average Record
Temperature  
Mean Temperature 34 °F -  
Max Temperature 44 °F 44 °F 74 °F (1975)
Min Temperature 24 °F 28 °F 0 °F (1951)
Degree Days  
Heating Degree Days 31    
Moisture  
Dew Point 22 °F    
Average Humidity 66    
Maximum Humidity 100    
Minimum Humidity 34    
Precipitation  
Precipitation 0.00 in - - ()
Sea Level Pressure  
Sea Level Pressure 30.18 in    
Wind  
Wind Speed 5 mph (WNW)    
Max Wind Speed 8 mph    
Max Gust Speed -    
Visibility 10 miles    
Events      
Averages and records for this station are not official NWS values.
T = Trace of Precipitation, MM = Missing Value Source: NWS Daily Summary

Daily Weather History Graph

Daily Weather History Graph

Search for Another Location

Airport or City:

Trip Planner

Search our weather history database for the weather conditions in past years. The results will help you decide how hot, cold, wet, or windy it might be!

Date:

Astronomy

Nov. 05, 2010 Rise Set
Actual Time 8:02 AM CDT 6:00 PM CDT
Civil Twilight 7:31 AM CDT 6:31 PM CDT
Nautical Twilight 6:56 AM CDT 7:06 PM CDT
Astronomical Twilight 6:21 AM CDT 7:40 PM CDT
Moon 7:30 AM CDT (11/5) 5:20 PM CDT (11/5)
Length of Visible Light 11h 00m
Length of Day
9h 58m
Waning Crescent, 0% of the Moon is Illuminated
Nov 5
Waning Crescent
Nov 5
New
Nov 13
First Quarter
Nov 21
Full
Nov 28
Last Quarter

Hourly Weather History & Observations

Time (CDT) Temp. Windchill Dew Point Humidity Pressure Visibility Wind Dir Wind Speed Gust Speed Precip Events Conditions
12:14 AM 30.2 °F 24.3 °F 21.2 °F 69% 30.20 in 10.0 mi NW 5.8 mph - N/A   Clear
12:34 AM 30.2 °F 24.3 °F 21.2 °F 69% 30.21 in 10.0 mi NW 5.8 mph - N/A   Clear
12:54 AM 30.2 °F 23.4 °F 21.2 °F 69% 30.21 in 10.0 mi NW 6.9 mph - N/A   Clear
1:14 AM 28.4 °F 22.2 °F 21.2 °F 74% 30.22 in 10.0 mi NW 5.8 mph - N/A   Clear
1:34 AM 28.4 °F 23.3 °F 21.2 °F 74% 30.21 in 10.0 mi NW 4.6 mph - N/A   Clear
1:54 AM 28.4 °F 22.2 °F 21.2 °F 74% 30.21 in 10.0 mi NW 5.8 mph - N/A   Clear
2:14 AM 28.4 °F 22.2 °F 21.2 °F 74% 30.20 in 10.0 mi NW 5.8 mph - N/A   Clear
2:34 AM 28.4 °F 22.2 °F 21.2 °F 74% 30.20 in 10.0 mi NW 5.8 mph - N/A   Clear
2:54 AM 26.6 °F 20.0 °F 21.2 °F 80% 30.21 in 10.0 mi NW 5.8 mph - N/A   Clear
3:14 AM 28.4 °F 21.2 °F 21.2 °F 74% 30.20 in 10.0 mi WNW 6.9 mph - N/A   Clear
3:34 AM 28.4 °F 20.4 °F 23.0 °F 80% 30.21 in 10.0 mi NW 8.1 mph - N/A   Clear
3:54 AM 26.6 °F 20.0 °F 24.8 °F 93% 30.21 in 10.0 mi NW 5.8 mph - N/A   Clear
4:14 AM 26.6 °F 19.1 °F 24.8 °F 93% 30.21 in 10.0 mi NW 6.9 mph - N/A   Clear
4:34 AM 26.6 °F 20.0 °F 24.8 °F 93% 30.21 in 10.0 mi NW 5.8 mph - N/A   Clear
4:54 AM 24.8 °F 19.1 °F 24.8 °F 100% 30.21 in 10.0 mi NW 4.6 mph - N/A   Clear
5:14 AM 26.6 °F 22.6 °F 24.8 °F 93% 30.20 in 10.0 mi NW 3.5 mph - N/A   Clear
5:34 AM 24.8 °F 20.5 °F 23.0 °F 93% 30.20 in 10.0 mi NNW 3.5 mph - N/A   Clear
5:54 AM 26.6 °F 22.6 °F 24.8 °F 93% 30.21 in 10.0 mi NW 3.5 mph - N/A   Clear
6:14 AM 26.6 °F 21.2 °F 24.8 °F 93% 30.21 in 10.0 mi WNW 4.6 mph - N/A   Clear
6:34 AM 26.6 °F 20.0 °F 24.8 °F 93% 30.21 in 10.0 mi WNW 5.8 mph - N/A   Clear
6:54 AM 26.6 °F 19.1 °F 26.6 °F 100% 30.21 in 10.0 mi WNW 6.9 mph - N/A   Clear
7:14 AM 26.6 °F 20.0 °F 24.8 °F 93% 30.21 in 10.0 mi WNW 5.8 mph - N/A   Clear
7:34 AM 24.8 °F 20.5 °F 23.0 °F 93% 30.21 in 10.0 mi WNW 3.5 mph - N/A   Clear
7:54 AM 24.8 °F 19.1 °F 23.0 °F 93% 30.22 in 10.0 mi NW 4.6 mph - N/A   Clear
8:14 AM 24.8 °F 16.9 °F 24.8 °F 100% 30.21 in 10.0 mi WNW 6.9 mph - N/A   Clear
8:34 AM 26.6 °F 20.0 °F 24.8 °F 93% 30.21 in 10.0 mi WNW 5.8 mph - N/A   Clear
8:54 AM 28.4 °F 23.3 °F 26.6 °F 93% 30.22 in 10.0 mi NW 4.6 mph - N/A   Clear
9:14 AM 28.4 °F 23.3 °F 26.6 °F 93% 30.22 in 10.0 mi WNW 4.6 mph - N/A   Clear
9:34 AM 30.2 °F 24.3 °F 26.6 °F 86% 30.21 in 10.0 mi WNW 5.8 mph - N/A   Clear
9:54 AM 30.2 °F 25.4 °F 26.6 °F 86% 30.22 in 10.0 mi NW 4.6 mph - N/A   Clear
10:14 AM 32.0 °F 26.4 °F 26.6 °F 80% 30.22 in 10.0 mi NW 5.8 mph - N/A   Clear
10:34 AM 33.8 °F 29.6 °F 24.8 °F 70% 30.21 in 10.0 mi NW 4.6 mph - N/A   Clear
10:54 AM 35.6 °F 32.8 °F 24.8 °F 65% 30.21 in 10.0 mi WNW 3.5 mph - N/A   Clear
11:14 AM 35.6 °F 31.7 °F 24.8 °F 65% 30.21 in 10.0 mi WNW 4.6 mph - N/A   Clear
11:34 AM 37.4 °F 32.8 °F 19.4 °F 48% 30.21 in 10.0 mi WNW 5.8 mph - N/A   Clear
11:54 AM 39.2 °F 37.0 °F 19.4 °F 45% 30.20 in 10.0 mi West 3.5 mph - N/A   Clear
12:14 PM 39.2 °F 34.2 °F 19.4 °F 45% 30.19 in 10.0 mi WNW 6.9 mph - N/A   Clear
12:34 PM 39.2 °F 35.0 °F 17.6 °F 42% 30.18 in 10.0 mi West 5.8 mph - N/A   Clear
12:54 PM 41.0 °F 38.0 °F 17.6 °F 39% 30.18 in 10.0 mi WSW 4.6 mph - N/A   Clear
1:14 PM 42.8 °F 40.1 °F 15.8 °F 34% 30.17 in 10.0 mi NW 4.6 mph - N/A   Clear
1:34 PM 42.8 °F 39.3 °F 19.4 °F 39% 30.17 in 10.0 mi WNW 5.8 mph - N/A   Clear
1:54 PM 42.8 °F 40.1 °F 17.6 °F 36% 30.16 in 10.0 mi West 4.6 mph - N/A   Clear
2:14 PM 42.8 °F 41.1 °F 15.8 °F 34% 30.15 in 10.0 mi NW 3.5 mph - N/A   Clear
2:34 PM 42.8 °F 39.3 °F 15.8 °F 34% 30.15 in 10.0 mi West 5.8 mph - N/A   Clear
2:54 PM 44.6 °F 43.1 °F 17.6 °F 34% 30.15 in 10.0 mi West 3.5 mph - N/A   Clear
3:14 PM 44.6 °F 43.1 °F 17.6 °F 34% 30.14 in 10.0 mi WSW 3.5 mph - N/A   Clear
3:34 PM 44.6 °F 42.2 °F 17.6 °F 34% 30.13 in 10.0 mi West 4.6 mph - N/A   Clear
3:54 PM 44.6 °F 42.2 °F 19.4 °F 37% 30.13 in 10.0 mi West 4.6 mph - N/A   Clear
4:14 PM 44.6 °F - 17.6 °F 34% 30.13 in 10.0 mi Calm Calm - N/A   Clear
4:34 PM 44.6 °F - 19.4 °F 37% 30.13 in 10.0 mi Calm Calm - N/A   Clear
4:54 PM 44.6 °F 43.1 °F 19.4 °F 37% 30.12 in 10.0 mi West 3.5 mph - N/A   Clear
5:14 PM 44.6 °F - 17.6 °F 34% 30.12 in 10.0 mi Calm Calm - N/A   Clear
5:34 PM 42.8 °F - 19.4 °F 39% 30.12 in 10.0 mi Calm Calm - N/A   Clear
5:54 PM 42.8 °F - 19.4 °F 39% 30.12 in 10.0 mi Calm Calm - N/A   Clear
6:14 PM 41.0 °F - 19.4 °F 42% 30.12 in 10.0 mi Calm Calm - N/A   Clear
6:34 PM 39.2 °F - 19.4 °F 45% 30.12 in 10.0 mi Calm Calm - N/A   Clear
6:54 PM 37.4 °F - 19.4 °F 48% 30.13 in 10.0 mi Calm Calm - N/A   Clear
7:14 PM 37.4 °F - 19.4 °F 48% 30.13 in 10.0 mi Calm Calm - N/A   Clear
7:34 PM 37.4 °F - 21.2 °F 52% 30.13 in 10.0 mi Calm Calm - N/A   Clear
7:54 PM 35.6 °F - 24.8 °F 65% 30.13 in 10.0 mi Calm Calm - N/A   Clear
8:14 PM 35.6 °F - 24.8 °F 65% 30.13 in 10.0 mi Calm Calm - N/A   Clear
8:34 PM 32.0 °F - 24.8 °F 75% 30.13 in 10.0 mi Calm Calm - N/A   Clear
8:54 PM 33.8 °F 30.8 °F 21.2 °F 60% 30.12 in 10.0 mi SSE 3.5 mph - N/A   Clear
9:14 PM 33.8 °F - 21.2 °F 60% 30.12 in 10.0 mi Calm Calm - N/A   Clear
9:34 PM 35.6 °F 32.8 °F 24.8 °F 65% 30.12 in 10.0 mi SSE 3.5 mph - N/A   Clear
9:54 PM 33.8 °F - 24.8 °F 70% 30.12 in 10.0 mi Calm Calm - N/A   Clear
10:14 PM 33.8 °F - 23.0 °F 65% 30.12 in 10.0 mi Calm Calm - N/A   Clear
10:34 PM 35.6 °F 32.8 °F 21.2 °F 56% 30.11 in 10.0 mi SSE 3.5 mph - N/A   Clear
10:54 PM 33.8 °F - 21.2 °F 60% 30.11 in 10.0 mi Calm Calm - N/A   Clear
11:14 PM 33.8 °F 29.6 °F 21.2 °F 60% 30.11 in 10.0 mi SSE 4.6 mph - N/A   Clear
11:34 PM 33.8 °F 30.8 °F 21.2 °F 60% 30.11 in 10.0 mi SSE 3.5 mph - N/A   Clear
11:54 PM 33.8 °F 30.8 °F 19.4 °F 56% 30.11 in 10.0 mi South 3.5 mph - N/A   Clear